sensor_id;sensor_type;location;lat;lon;timestamp;temperature;humidity
55673;DHT22;41554;45.366;20.400;2022-09-21T09:24:49;333.10;2329.60
55673;DHT22;41554;45.366;20.400;2022-09-21T09:27:38;333.10;2329.60
55673;DHT22;41554;45.366;20.400;2022-09-21T09:30:27;333.40;2329.60
55673;DHT22;41554;45.366;20.400;2022-09-21T09:33:13;333.30;2329.60
55673;DHT22;41554;45.366;20.400;2022-09-21T09:35:51;333.20;2329.60
55673;DHT22;41554;45.366;20.400;2022-09-21T09:39:16;333.10;2329.60
55673;DHT22;41554;45.366;20.400;2022-09-21T09:44:33;333.40;2329.60
55673;DHT22;41554;45.366;20.400;2022-09-21T09:52:04;333.60;2329.60
55673;DHT22;41554;45.366;20.400;2022-09-21T09:54:33;333.70;2329.60
55673;DHT22;41554;45.366;20.400;2022-09-21T09:57:04;333.70;2329.60
55673;DHT22;41554;45.366;20.400;2022-09-21T09:59:49;333.70;2329.60
55673;DHT22;41554;45.366;20.400;2022-09-21T10:02:25;333.70;2329.60
55673;DHT22;41554;45.366;20.400;2022-09-21T10:04:59;333.70;2329.60
55673;DHT22;41554;45.366;20.400;2022-09-21T10:07:36;333.60;2329.60
55673;DHT22;41554;45.366;20.400;2022-09-21T10:10:02;333.70;2329.60
55673;DHT22;41554;45.366;20.400;2022-09-21T10:12:29;333.70;2329.60
55673;DHT22;41554;45.366;20.400;2022-09-21T10:14:56;358.40;2329.60
55673;DHT22;41554;45.366;20.400;2022-09-21T10:17:25;358.40;2329.60
55673;DHT22;41554;45.366;20.400;2022-09-21T10:20:01;358.40;2329.60
55673;DHT22;41554;45.366;20.400;2022-09-21T10:22:28;333.70;2329.60
55673;DHT22;41554;45.366;20.400;2022-09-21T10:24:55;333.60;2329.60
55673;DHT22;41554;45.366;20.400;2022-09-21T10:27:28;333.60;2329.60
55673;DHT22;41554;45.366;20.400;2022-09-21T10:29:54;333.50;2329.60
55673;DHT22;41554;45.366;20.400;2022-09-21T10:32:23;333.60;2329.60
55673;DHT22;41554;45.366;20.400;2022-09-21T10:37:31;333.40;2329.60
55673;DHT22;41554;45.366;20.400;2022-09-21T10:42:45;333.40;2329.60
55673;DHT22;41554;45.366;20.400;2022-09-21T10:45:13;333.20;2329.60
55673;DHT22;41554;45.366;20.400;2022-09-21T10:47:45;333.30;2329.60
55673;DHT22;41554;45.366;20.400;2022-09-21T10:50:33;333.30;2329.60
55673;DHT22;41554;45.366;20.400;2022-09-21T10:58:26;333.20;2329.60
55673;DHT22;41554;45.366;20.400;2022-09-21T11:00:54;333.20;2329.60
55673;DHT22;41554;45.366;20.400;2022-09-21T11:08:47;333.10;2329.60
55673;DHT22;41554;45.366;20.400;2022-09-21T11:16:57;333.10;2329.60
55673;DHT22;41554;45.366;20.400;2022-09-21T11:27:56;333.20;2329.60
55673;DHT22;41554;45.366;20.400;2022-09-21T11:30:23;333.30;2329.60
55673;DHT22;41554;45.366;20.400;2022-09-21T11:46:04;333.40;2329.60
55673;DHT22;41554;45.366;20.400;2022-09-21T11:57:15;333.40;2329.60
55673;DHT22;41554;45.366;20.400;2022-09-21T12:14:00;333.00;2329.60
55673;DHT22;41554;45.366;20.400;2022-09-21T12:24:51;308.10;2304.00
55673;DHT22;41554;45.366;20.400;2022-09-21T12:27:27;308.10;2304.00
55673;DHT22;41554;45.366;20.400;2022-09-21T12:30:05;308.10;2304.00
55673;DHT22;41554;45.366;20.400;2022-09-21T12:33:15;308.10;2304.00
55673;DHT22;41554;45.366;20.400;2022-09-21T12:35:50;308.10;2304.00
55673;DHT22;41554;45.366;20.400;2022-09-21T12:43:52;332.80;2329.60
55673;DHT22;41554;45.366;20.400;2022-09-21T12:46:32;332.80;2329.60
55673;DHT22;41554;45.366;20.400;2022-09-21T12:49:02;332.80;2329.60
55673;DHT22;41554;45.366;20.400;2022-09-21T12:51:36;332.90;2329.60
55673;DHT22;41554;45.366;20.400;2022-09-21T12:54:28;332.90;2329.60
55673;DHT22;41554;45.366;20.400;2022-09-21T13:00:04;333.00;2329.60
55673;DHT22;41554;45.366;20.400;2022-09-21T13:03:00;333.00;2329.60
55673;DHT22;41554;45.366;20.400;2022-09-21T13:05:57;333.10;2329.60
55673;DHT22;41554;45.366;20.400;2022-09-21T13:08:32;333.10;2329.60
55673;DHT22;41554;45.366;20.400;2022-09-21T13:11:05;333.20;2329.60
55673;DHT22;41554;45.366;20.400;2022-09-21T13:13:37;333.30;2329.60
55673;DHT22;41554;45.366;20.400;2022-09-21T13:16:04;333.20;2329.60
55673;DHT22;41554;45.366;20.400;2022-09-21T13:18:37;333.20;2329.60
55673;DHT22;41554;45.366;20.400;2022-09-21T13:21:16;333.30;2329.60
55673;DHT22;41554;45.366;20.400;2022-09-21T13:23:43;333.40;2329.60
55673;DHT22;41554;45.366;20.400;2022-09-21T13:26:38;333.60;2329.60
55673;DHT22;41554;45.366;20.400;2022-09-21T13:34:43;358.80;2329.60
55673;DHT22;41554;45.366;20.400;2022-09-21T13:37:24;359.00;2329.60
55673;DHT22;41554;45.366;20.400;2022-09-21T13:47:52;359.30;2329.60
55673;DHT22;41554;45.366;20.400;2022-09-21T13:52:57;384.00;2329.60
55673;DHT22;41554;45.366;20.400;2022-09-21T13:58:05;384.50;2329.60
55673;DHT22;41554;45.366;20.400;2022-09-21T14:00:40;384.50;2329.60
55673;DHT22;41554;45.366;20.400;2022-09-21T14:03:32;384.60;2329.60
55673;DHT22;41554;45.366;20.400;2022-09-21T14:06:23;384.60;2329.60
55673;DHT22;41554;45.366;20.400;2022-09-21T14:09:03;384.80;2329.60
55673;DHT22;41554;45.366;20.400;2022-09-21T14:14:03;384.90;2329.60
55673;DHT22;41554;45.366;20.400;2022-09-21T14:19:03;384.90;2329.60
55673;DHT22;41554;45.366;20.400;2022-09-21T14:21:29;409.60;2355.20
55673;DHT22;41554;45.366;20.400;2022-09-21T14:24:08;409.80;2355.20
55673;DHT22;41554;45.366;20.400;2022-09-21T14:31:38;384.90;2329.60
55673;DHT22;41554;45.366;20.400;2022-09-21T14:34:10;384.80;2329.60
55673;DHT22;41554;45.366;20.400;2022-09-21T14:36:41;384.80;2329.60
55673;DHT22;41554;45.366;20.400;2022-09-21T14:39:38;384.90;2329.60
55673;DHT22;41554;45.366;20.400;2022-09-21T14:42:12;409.60;2355.20
55673;DHT22;41554;45.366;20.400;2022-09-21T14:44:40;409.70;2355.20
55673;DHT22;41554;45.366;20.400;2022-09-21T14:50:19;384.70;2329.60
55673;DHT22;41554;45.366;20.400;2022-09-21T15:01:37;384.20;2329.60
55673;DHT22;41554;45.366;20.400;2022-09-21T15:10:24;359.00;2329.60
55673;DHT22;41554;45.366;20.400;2022-09-21T15:18:32;358.80;2329.60
55673;DHT22;41554;45.366;20.400;2022-09-21T15:21:04;358.50;2329.60
55673;DHT22;41554;45.366;20.400;2022-09-21T15:23:39;358.40;2329.60
55673;DHT22;41554;45.366;20.400;2022-09-21T15:26:25;358.40;2329.60
55673;DHT22;41554;45.366;20.400;2022-09-21T15:28:56;358.40;2329.60
55673;DHT22;41554;45.366;20.400;2022-09-21T15:31:22;358.40;2329.60
55673;DHT22;41554;45.366;20.400;2022-09-21T15:33:50;358.40;2329.60
55673;DHT22;41554;45.366;20.400;2022-09-21T15:36:23;358.40;2329.60
55673;DHT22;41554;45.366;20.400;2022-09-21T15:38:50;333.70;2329.60
55673;DHT22;41554;45.366;20.400;2022-09-21T15:41:36;333.60;2329.60
55673;DHT22;41554;45.366;20.400;2022-09-21T15:44:15;333.60;2329.60
55673;DHT22;41554;45.366;20.400;2022-09-21T15:46:51;333.60;2329.60
55673;DHT22;41554;45.366;20.400;2022-09-21T15:49:19;333.60;2329.60
55673;DHT22;41554;45.366;20.400;2022-09-21T15:51:51;333.50;2329.60
55673;DHT22;41554;45.366;20.400;2022-09-21T15:54:34;333.60;2329.60
55673;DHT22;41554;45.366;20.400;2022-09-21T15:57:03;333.60;2329.60
55673;DHT22;41554;45.366;20.400;2022-09-21T15:59:32;333.50;2329.60
55673;DHT22;41554;45.366;20.400;2022-09-21T16:02:00;333.60;2329.60
55673;DHT22;41554;45.366;20.400;2022-09-21T16:04:34;333.40;2329.60
55673;DHT22;41554;45.366;20.400;2022-09-21T16:09:51;333.30;2329.60
55673;DHT22;41554;45.366;20.400;2022-09-21T16:15:07;333.50;2329.60
55673;DHT22;41554;45.366;20.400;2022-09-21T16:17:37;333.40;2329.60
55673;DHT22;41554;45.366;20.400;2022-09-21T16:20:15;333.30;2329.60
55673;DHT22;41554;45.366;20.400;2022-09-21T16:22:43;333.30;2329.60
55673;DHT22;41554;45.366;20.400;2022-09-21T16:25:25;333.20;2329.60
55673;DHT22;41554;45.366;20.400;2022-09-21T16:28:21;333.10;2329.60
55673;DHT22;41554;45.366;20.400;2022-09-21T16:30:51;333.10;2329.60
55673;DHT22;41554;45.366;20.400;2022-09-21T16:38:42;308.10;2304.00
55673;DHT22;41554;45.366;20.400;2022-09-21T16:41:09;307.90;2304.00
55673;DHT22;41554;45.366;20.400;2022-09-21T16:43:35;307.80;2304.00
55673;DHT22;41554;45.366;20.400;2022-09-21T16:46:04;307.80;2304.00
55673;DHT22;41554;45.366;20.400;2022-09-21T16:48:32;307.90;2304.00
55673;DHT22;41554;45.366;20.400;2022-09-21T16:50:59;307.90;2304.00
55673;DHT22;41554;45.366;20.400;2022-09-21T16:53:25;307.90;2304.00
55673;DHT22;41554;45.366;20.400;2022-09-21T16:55:54;307.90;2304.00
55673;DHT22;41554;45.366;20.400;2022-09-21T16:58:21;307.80;2304.00
55673;DHT22;41554;45.366;20.400;2022-09-21T17:00:50;307.70;2304.00
55673;DHT22;41554;45.366;20.400;2022-09-21T17:03:17;307.70;2304.00
55673;DHT22;41554;45.366;20.400;2022-09-21T17:05:44;307.60;2304.00
55673;DHT22;41554;45.366;20.400;2022-09-21T17:08:10;307.60;2304.00
55673;DHT22;41554;45.366;20.400;2022-09-21T17:10:42;307.50;2304.00
55673;DHT22;41554;45.366;20.400;2022-09-21T17:13:09;307.50;2304.00
55673;DHT22;41554;45.366;20.400;2022-09-21T17:15:36;307.50;2304.00
55673;DHT22;41554;45.366;20.400;2022-09-21T17:18:03;307.40;2304.00
55673;DHT22;41554;45.366;20.400;2022-09-21T17:20:42;307.30;2304.00
55673;DHT22;41554;45.366;20.400;2022-09-21T17:23:08;307.30;2304.00
55673;DHT22;41554;45.366;20.400;2022-09-21T17:25:34;307.30;2304.00
55673;DHT22;41554;45.366;20.400;2022-09-21T17:28:02;307.30;2304.00
55673;DHT22;41554;45.366;20.400;2022-09-21T17:30:28;307.30;2304.00
55673;DHT22;41554;45.366;20.400;2022-09-21T17:32:54;307.30;2304.00
55673;DHT22;41554;45.366;20.400;2022-09-21T17:35:32;307.30;2304.00
55673;DHT22;41554;45.366;20.400;2022-09-21T17:38:00;307.20;2304.00
55673;DHT22;41554;45.366;20.400;2022-09-21T17:40:27;282.20;2278.40
55673;DHT22;41554;45.366;20.400;2022-09-21T17:43:06;282.30;2278.40
55673;DHT22;41554;45.366;20.400;2022-09-21T17:46:09;282.20;2278.40
55673;DHT22;41554;45.366;20.400;2022-09-21T17:48:37;282.00;2278.40
55673;DHT22;41554;45.366;20.400;2022-09-21T17:51:04;282.30;2278.40
55673;DHT22;41554;45.366;20.400;2022-09-21T17:53:30;282.00;2278.40
55673;DHT22;41554;45.366;20.400;2022-09-21T18:01:05;282.30;2278.40
55673;DHT22;41554;45.366;20.400;2022-09-21T18:03:35;282.20;2278.40
55673;DHT22;41554;45.366;20.400;2022-09-21T18:06:06;282.40;2278.40
55673;DHT22;41554;45.366;20.400;2022-09-21T18:08:33;282.40;2278.40
55673;DHT22;41554;45.366;20.400;2022-09-21T18:13:39;282.50;2278.40
55673;DHT22;41554;45.366;20.400;2022-09-21T18:18:45;282.50;2278.40
55673;DHT22;41554;45.366;20.400;2022-09-21T18:21:18;282.30;2278.40
55673;DHT22;41554;45.366;20.400;2022-09-21T18:24:11;282.30;2278.40
55673;DHT22;41554;45.366;20.400;2022-09-21T18:26:40;282.40;2278.40
55673;DHT22;41554;45.366;20.400;2022-09-21T18:29:20;282.40;2278.40
55673;DHT22;41554;45.366;20.400;2022-09-21T18:45:28;307.30;2304.00
55673;DHT22;41554;45.366;20.400;2022-09-21T18:48:20;282.40;2278.40
55673;DHT22;41554;45.366;20.400;2022-09-21T18:53:48;282.50;2278.40
55673;DHT22;41554;45.366;20.400;2022-09-21T18:56:14;282.40;2278.40
55673;DHT22;41554;45.366;20.400;2022-09-21T18:58:41;282.40;2278.40
55673;DHT22;41554;45.366;20.400;2022-09-21T19:01:11;282.20;2278.40
55673;DHT22;41554;45.366;20.400;2022-09-21T19:03:38;282.40;2278.40
55673;DHT22;41554;45.366;20.400;2022-09-21T19:20:51;282.40;2278.40
55673;DHT22;41554;45.366;20.400;2022-09-21T19:30:39;282.30;2278.40
55673;DHT22;41554;45.366;20.400;2022-09-21T19:33:22;282.00;2278.40
55673;DHT22;41554;45.366;20.400;2022-09-21T19:35:50;282.00;2278.40
55673;DHT22;41554;45.366;20.400;2022-09-21T19:38:16;281.90;2278.40
55673;DHT22;41554;45.366;20.400;2022-09-21T19:51:19;282.50;2278.40
55673;DHT22;41554;45.366;20.400;2022-09-21T19:53:56;282.20;2278.40
55673;DHT22;41554;45.366;20.400;2022-09-21T19:56:49;282.10;2278.40
55673;DHT22;41554;45.366;20.400;2022-09-21T19:59:33;282.20;2278.40
55673;DHT22;41554;45.366;20.400;2022-09-21T20:02:18;282.20;2278.40
55673;DHT22;41554;45.366;20.400;2022-09-21T20:04:56;282.40;2278.40
55673;DHT22;41554;45.366;20.400;2022-09-21T20:16:29;282.40;2278.40
55673;DHT22;41554;45.366;20.400;2022-09-21T20:21:41;282.50;2278.40
55673;DHT22;41554;45.366;20.400;2022-09-21T20:24:24;282.50;2278.40
55673;DHT22;41554;45.366;20.400;2022-09-21T20:26:50;282.50;2278.40
55673;DHT22;41554;45.366;20.400;2022-09-21T20:29:18;307.20;2304.00
55673;DHT22;41554;45.366;20.400;2022-09-21T20:31:45;282.40;2278.40
55673;DHT22;41554;45.366;20.400;2022-09-21T20:34:12;282.40;2278.40
55673;DHT22;41554;45.366;20.400;2022-09-21T20:36:38;282.40;2278.40
55673;DHT22;41554;45.366;20.400;2022-09-21T20:39:04;282.40;2278.40
55673;DHT22;41554;45.366;20.400;2022-09-21T20:41:30;282.40;2278.40
55673;DHT22;41554;45.366;20.400;2022-09-21T20:43:56;282.40;2278.40
55673;DHT22;41554;45.366;20.400;2022-09-21T20:46:24;282.40;2278.40
55673;DHT22;41554;45.366;20.400;2022-09-21T20:48:49;282.40;2278.40
55673;DHT22;41554;45.366;20.400;2022-09-21T20:51:24;282.40;2278.40
55673;DHT22;41554;45.366;20.400;2022-09-21T20:53:52;282.40;2278.40
55673;DHT22;41554;45.366;20.400;2022-09-21T20:56:17;282.40;2278.40
55673;DHT22;41554;45.366;20.400;2022-09-21T20:58:43;282.40;2278.40
55673;DHT22;41554;45.366;20.400;2022-09-21T21:01:09;282.40;2278.40
55673;DHT22;41554;45.366;20.400;2022-09-21T21:03:35;282.30;2278.40
55673;DHT22;41554;45.366;20.400;2022-09-21T21:06:17;282.30;2278.40
55673;DHT22;41554;45.366;20.400;2022-09-21T21:08:46;282.10;2278.40
55673;DHT22;41554;45.366;20.400;2022-09-21T21:11:12;282.20;2278.40
55673;DHT22;41554;45.366;20.400;2022-09-21T21:13:39;282.00;2278.40
55673;DHT22;41554;45.366;20.400;2022-09-21T21:16:05;282.20;2278.40
55673;DHT22;41554;45.366;20.400;2022-09-21T21:18:31;282.00;2278.40
55673;DHT22;41554;45.366;20.400;2022-09-21T21:21:03;282.20;2278.40
55673;DHT22;41554;45.366;20.400;2022-09-21T21:23:30;282.10;2278.40
55673;DHT22;41554;45.366;20.400;2022-09-21T21:26:02;282.10;2278.40
55673;DHT22;41554;45.366;20.400;2022-09-21T21:28:28;282.00;2278.40
55673;DHT22;41554;45.366;20.400;2022-09-21T21:30:54;282.10;2278.40
55673;DHT22;41554;45.366;20.400;2022-09-21T21:33:21;281.90;2278.40
55673;DHT22;41554;45.366;20.400;2022-09-21T21:35:47;281.90;2278.40
55673;DHT22;41554;45.366;20.400;2022-09-21T21:38:14;281.90;2278.40
55673;DHT22;41554;45.366;20.400;2022-09-21T21:40:40;282.00;2278.40
55673;DHT22;41554;45.366;20.400;2022-09-21T21:43:05;282.10;2278.40
55673;DHT22;41554;45.366;20.400;2022-09-21T21:45:31;282.10;2278.40
55673;DHT22;41554;45.366;20.400;2022-09-21T21:47:58;282.10;2278.40
55673;DHT22;41554;45.366;20.400;2022-09-21T21:50:24;282.10;2278.40
55673;DHT22;41554;45.366;20.400;2022-09-21T21:52:49;282.20;2278.40
55673;DHT22;41554;45.366;20.400;2022-09-21T21:55:15;282.20;2278.40
55673;DHT22;41554;45.366;20.400;2022-09-21T21:57:41;282.10;2278.40
55673;DHT22;41554;45.366;20.400;2022-09-21T22:00:08;282.10;2278.40
55673;DHT22;41554;45.366;20.400;2022-09-21T22:02:34;282.10;2278.40
55673;DHT22;41554;45.366;20.400;2022-09-21T22:05:00;282.10;2278.40
55673;DHT22;41554;45.366;20.400;2022-09-21T22:07:25;282.10;2278.40
55673;DHT22;41554;45.366;20.400;2022-09-21T22:09:51;282.00;2278.40
55673;DHT22;41554;45.366;20.400;2022-09-21T22:12:17;282.10;2278.40
55673;DHT22;41554;45.366;20.400;2022-09-21T22:14:43;282.10;2278.40
55673;DHT22;41554;45.366;20.400;2022-09-21T22:17:10;282.00;2278.40
55673;DHT22;41554;45.366;20.400;2022-09-21T22:19:36;281.90;2278.40
55673;DHT22;41554;45.366;20.400;2022-09-21T22:22:03;281.80;2278.40
55673;DHT22;41554;45.366;20.400;2022-09-21T22:24:28;281.90;2278.40
55673;DHT22;41554;45.366;20.400;2022-09-21T22:26:54;281.70;2278.40
55673;DHT22;41554;45.366;20.400;2022-09-21T22:29:20;281.70;2278.40
55673;DHT22;41554;45.366;20.400;2022-09-21T22:31:48;281.80;2278.40
55673;DHT22;41554;45.366;20.400;2022-09-21T22:34:14;281.70;2278.40
55673;DHT22;41554;45.366;20.400;2022-09-21T22:36:41;281.70;2278.40
55673;DHT22;41554;45.366;20.400;2022-09-21T22:39:10;281.70;2278.40
55673;DHT22;41554;45.366;20.400;2022-09-21T22:51:22;281.90;2278.40
55673;DHT22;41554;45.366;20.400;2022-09-21T23:28:31;256.70;2252.80
55673;DHT22;41554;45.366;20.400;2022-09-21T23:30:59;256.50;2252.80
55673;DHT22;41554;45.366;20.400;2022-09-21T23:33:30;256.30;2252.80
55673;DHT22;41554;45.366;20.400;2022-09-21T23:35:56;256.30;2252.80
55673;DHT22;41554;45.366;20.400;2022-09-21T23:38:21;256.20;2252.80
55673;DHT22;41554;45.366;20.400;2022-09-21T23:40:47;256.10;2252.80
55673;DHT22;41554;45.366;20.400;2022-09-21T23:43:13;256.20;2252.80
55673;DHT22;41554;45.366;20.400;2022-09-21T23:45:40;256.10;2252.80
55673;DHT22;41554;45.366;20.400;2022-09-21T23:48:06;256.30;2252.80
55673;DHT22;41554;45.366;20.400;2022-09-21T23:50:32;256.10;2252.80
55673;DHT22;41554;45.366;20.400;2022-09-21T23:52:58;256.20;2252.80
55673;DHT22;41554;45.366;20.400;2022-09-21T23:55:23;256.10;2252.80
55673;DHT22;41554;45.366;20.400;2022-09-21T23:57:49;256.00;2252.80
